Hovedside
METAR-TAF:

METAR-TAF

Lufthavner :

Pskov, Russland

breddegrad: 57-47-06N, lengdegrad: 028-23-54E, høyde over havet: 47 m

Gjeldene værobservasjon

Denne rapporten ble laget for 1 time og 10 minutter siden, klokken 18:00 UTC
Vind 6 kt fra Nord-nordvest
Temperatur 17°C
Luftfuktighet 39%
Trykk 1025 hPa
Sikt: 9000 m

METAR: ULOO 201800Z AUTO 34003MPS 9000 // NCD 17/03 Q1025 RMK QFE764

Tid: 22:10 (19:10 UTC)

Varsel

Denne rapporten ble laget for 8 timer og 12 minutter siden, klokken 10:58 UTC
Varsel gyldig fra 20. klokken 12 UTC til 20. klokken 21 UTC
Vind 6 kt fra Nord med vindkast opp mot 16 kt
Sikt 10 km eller mer
Brutte skyer i en høyde av 2000 ft

TAF: ULOO 201058Z 2012/2021 35003G08MPS 9999 BKN020

Værobservasjoner og værvarsel for over 4000 flyplasser (METAR- og TAF-rapporter).

Tilgjengelige stasjoner er representert av de røde og gule prikkene på kartet.

Hold musepekeren over prikken for å se navnet på stasjonen.

Klikk så for å se værobservasjoner og -varsler.

For å forandre kartet kan du klikke på den grønne knappen med svart kryss for å zoome inn, på den grønne knappen med strek for å zoome ut, eller på de grønne pilene for å se tilstøtende kart.


METAR-TAF: